»·PEaware :: UAL1344 KPHX-KBUR

UAL1344 :: KPHX-KBUR

FLIGHT INFORMATION

Flight Status: Arrived
Operator:
United Airlines
More flights by this operator :: More flights under this callsign
Pilot: Ruben R. (12247)
Aircraft: AIRBUS A320
(A320)
More flights by this aircraft type
Origin: KPHX Phoenix Sky Harbor Intl
United States
Destination: KBUR Bob Hope-Burbank
United States
More flights between these airports :: More routes between these airports
Route: +MAYSA5 JKPOT EED HEC LYNXX8
File this flight plan on PilotEdge
Remarks: TWITCH.TV / THEMACH3LOUNGE
Altitude:
(Current/Filed)
35,000ft
Speed:
(Current/Filed)
450kts
Departed: 06-Dec-17 09:05 PM
Arrived: 06-Dec-17 10:26 PM
Distance/Time
Traveled:
319nm/1:21
Distance/Time
To Go:
Arrived

Flight Plot

Page will automatically refresh every two minutes.


Map Options




Map Legend


Flown Route
Filed Route
Departure Airport
Arrival Airport
Navaid (VOR, NDB)
Fix

Horizontal Profiles

Position Reports

Time Latitude Longitude Heading Altitude Ground
Speed
06-Dec-17 20:34 33.433891 -112.014314 94 1118ft 0kts
06-Dec-17 20:35 33.433891 -112.014314 94 1118ft 0kts
06-Dec-17 20:36 33.433891 -112.014314 94 1118ft 0kts
06-Dec-17 20:37 33.433891 -112.014314 94 1118ft 0kts
06-Dec-17 20:38 33.433891 -112.014314 94 1118ft 0kts
06-Dec-17 20:39 33.433891 -112.014314 94 1118ft 0kts
06-Dec-17 20:40 33.433891 -112.014314 94 1118ft 0kts
06-Dec-17 20:41 33.433891 -112.014314 94 1118ft 0kts
06-Dec-17 20:42 33.433891 -112.014314 94 1118ft 0kts
06-Dec-17 20:43 33.433891 -112.014314 94 1118ft 0kts
06-Dec-17 20:44 33.433891 -112.014314 94 1118ft 0kts
06-Dec-17 20:45 33.433891 -112.014314 94 1118ft 0kts
06-Dec-17 20:46 33.433891 -112.014314 94 1118ft 0kts
06-Dec-17 20:47 33.433891 -112.014314 94 1118ft 0kts
06-Dec-17 20:48 33.433891 -112.014314 94 1118ft 0kts
06-Dec-17 20:49 33.433891 -112.014314 94 1118ft 0kts
06-Dec-17 20:50 33.433891 -112.014314 94 1118ft 0kts
06-Dec-17 20:51 33.433891 -112.014314 94 1118ft 0kts
06-Dec-17 20:52 33.433891 -112.014314 94 1118ft 0kts
06-Dec-17 20:53 33.433891 -112.014314 94 1118ft 0kts
06-Dec-17 20:54 33.433891 -112.014314 94 1118ft 0kts
06-Dec-17 20:55 33.433891 -112.014314 94 1118ft 0kts
06-Dec-17 20:56 33.433891 -112.014314 94 1118ft 0kts
06-Dec-17 20:57 33.433891 -112.014314 94 1118ft 0kts
06-Dec-17 20:58 33.433892 -112.014327 95 1118ft 1kts
06-Dec-17 20:59 33.433980 -112.014879 124 1118ft 2kts
06-Dec-17 21:00 33.434435 -112.015109 192 1118ft 2kts
06-Dec-17 21:01 33.434619 -112.015031 200 1118ft 0kts
06-Dec-17 21:02 33.434619 -112.015031 200 1118ft 0kts
06-Dec-17 21:03 33.434377 -112.015142 200 1118ft 6kts
06-Dec-17 21:04 33.432883 -112.016354 270 1118ft 9kts
06-Dec-17 21:05 33.432157 -112.019626 269 1118ft 14kts
06-Dec-17 21:06 33.432166 -112.023357 269 1118ft 11kts
06-Dec-17 21:07 33.432161 -112.026524 261 1118ft 9kts
06-Dec-17 21:08 33.432074 -112.026781 230 1118ft 0kts
06-Dec-17 21:09 33.431647 -112.027039 183 1118ft 13kts
06-Dec-17 21:10 33.431158 -112.014172 89 1118ft 142kts
06-Dec-17 21:11 33.431991 -111.968853 86 3037ft 163kts
06-Dec-17 21:12 33.434788 -111.907388 86 4497ft 228kts
06-Dec-17 21:13 33.469642 -111.854819 8 7103ft 245kts
06-Dec-17 21:14 33.531586 -111.848740 6 8984ft 250kts
06-Dec-17 21:15 33.592839 -111.842606 10 10174ft 250kts
06-Dec-17 21:16 33.658142 -111.837736 358 12928ft 253kts
06-Dec-17 21:17 33.723551 -111.850169 339 15704ft 244kts
06-Dec-17 21:18 33.769235 -111.909482 306 17852ft 252kts
06-Dec-17 21:19 33.809682 -111.975850 305 20127ft 248kts
06-Dec-17 21:20 33.851902 -112.045087 305 21118ft 283kts
06-Dec-17 21:21 33.902864 -112.128684 305 21102ft 336kts
06-Dec-17 21:22 33.960821 -112.224092 305 21097ft 361kts
06-Dec-17 21:23 34.018291 -112.318769 307 21098ft 361kts
06-Dec-17 21:24 34.091710 -112.398710 318 21097ft 363kts
06-Dec-17 21:25 34.165634 -112.473104 319 21095ft 364kts
06-Dec-17 21:26 34.241285 -112.549375 323 21148ft 370kts
06-Dec-17 21:27 34.319367 -112.628316 324 21226ft 375kts
06-Dec-17 21:28 34.395445 -112.705439 323 21224ft 373kts
06-Dec-17 21:29 34.473946 -112.785194 323 21224ft 371kts
06-Dec-17 21:30 34.552490 -112.865205 323 21223ft 371kts
06-Dec-17 21:31 34.631230 -112.945664 323 21224ft 371kts
06-Dec-17 21:32 34.708356 -113.026858 316 21215ft 370kts
06-Dec-17 21:33 34.745720 -113.147195 276 21222ft 410kts
06-Dec-17 21:34 34.712061 -113.284254 268 21224ft 420kts
06-Dec-17 21:35 34.714713 -113.421133 281 21586ft 404kts
06-Dec-17 21:36 34.720568 -113.549449 283 24575ft 361kts
06-Dec-17 21:37 34.725770 -113.662836 283 27438ft 319kts
06-Dec-17 21:38 34.730475 -113.764442 283 29418ft 300kts
06-Dec-17 21:39 34.735158 -113.866475 282 30570ft 304kts
06-Dec-17 21:40 34.739249 -113.959414 282 31702ft 301kts
06-Dec-17 21:41 34.743603 -114.059785 282 32728ft 301kts
06-Dec-17 21:42 34.747906 -114.161335 282 33600ft 301kts
06-Dec-17 21:43 34.752134 -114.263058 281 34250ft 306kts
06-Dec-17 21:44 34.756422 -114.368534 282 33176ft 323kts
06-Dec-17 21:45 34.761243 -114.487599 281 28617ft 383kts
06-Dec-17 21:46 34.766378 -114.621618 281 25026ft 409kts
06-Dec-17 21:47 34.769551 -114.751515 279 24233ft 438kts
06-Dec-17 21:48 34.772759 -114.899339 279 24228ft 441kts
06-Dec-17 21:49 34.775895 -115.047861 279 24228ft 441kts
06-Dec-17 21:50 34.778830 -115.194931 279 24216ft 436kts
06-Dec-17 21:51 34.781677 -115.343750 279 24223ft 441kts
06-Dec-17 21:52 34.784286 -115.492144 279 24223ft 439kts
06-Dec-17 21:53 34.786734 -115.640358 279 24255ft 439kts
06-Dec-17 21:54 34.788582 -115.760649 279 24336ft 439kts
06-Dec-17 21:55 34.790531 -115.898586 279 24333ft 430kts
06-Dec-17 21:56 34.792504 -116.044964 279 24331ft 439kts
06-Dec-17 21:57 34.794254 -116.192590 279 24331ft 438kts
06-Dec-17 21:58 34.795644 -116.321545 279 24273ft 437kts
06-Dec-17 21:59 34.795949 -116.468405 275 24278ft 442kts
06-Dec-17 22:00 34.781983 -116.617472 272 24264ft 446kts
06-Dec-17 22:01 34.769195 -116.747118 271 22435ft 446kts
06-Dec-17 22:02 34.755895 -116.880402 271 21443ft 440kts
06-Dec-17 22:03 34.741237 -117.025762 271 20399ft 434kts
06-Dec-17 22:04 34.726620 -117.169008 271 19368ft 429kts
06-Dec-17 22:05 34.712860 -117.302417 270 18356ft 426kts
06-Dec-17 22:07 34.698377 -117.440518 269 17374ft 399kts
06-Dec-17 22:08 34.685059 -117.566631 264 16477ft 365kts
06-Dec-17 22:09 34.672877 -117.681631 258 15704ft 353kts
06-Dec-17 22:10 34.663976 -117.764777 254 15104ft 356kts
06-Dec-17 22:11 34.652660 -117.868945 254 14180ft 399kts
06-Dec-17 22:12 34.639481 -117.990514 259 11466ft 433kts
06-Dec-17 22:13 34.623218 -118.100666 257 10598ft 392kts
06-Dec-17 22:14 34.598907 -118.208779 260 10118ft 309kts
06-Dec-17 22:15 34.578356 -118.301312 259 9108ft 284kts
06-Dec-17 22:16 34.558453 -118.390772 252 8353ft 266kts
06-Dec-17 22:16 34.543119 -118.459165 251 8156ft 245kts
06-Dec-17 22:18 34.508513 -118.537134 195 7534ft 227kts
06-Dec-17 22:18 34.457649 -118.557375 192 6139ft 248kts
06-Dec-17 22:19 34.398738 -118.580490 193 5176ft 221kts
06-Dec-17 22:21 34.331593 -118.589326 173 5044ft 237kts
06-Dec-17 22:21 34.281494 -118.585081 173 5048ft 246kts
06-Dec-17 22:23 34.205536 -118.582013 173 5045ft 240kts
06-Dec-17 22:23 34.158900 -118.586013 173 4062ft 236kts
06-Dec-17 22:24 34.121939 -118.554738 86 4023ft 185kts
06-Dec-17 22:25 34.127732 -118.507148 82 3063ft 205kts
06-Dec-17 22:26 34.134798 -118.455256 82 3026ft 204kts
06-Dec-17 22:27 34.141005 -118.409046 83 3028ft 176kts
06-Dec-17 22:28 34.145798 -118.370427 84 2424ft 174kts
06-Dec-17 22:29 34.159606 -118.341644 359 1364ft 158kts
06-Dec-17 22:30 34.186676 -118.353448 348 929ft 156kts
06-Dec-17 22:31 34.209780 -118.359763 348 739ft 24kts
06-Dec-17 22:32 34.210172 -118.358523 169 739ft 19kts
06-Dec-17 22:33 34.205807 -118.357312 169 739ft 23kts
06-Dec-17 22:34 34.200844 -118.355917 167 739ft 25kts
06-Dec-17 22:35 34.197358 -118.353321 91 739ft 10kts
06-Dec-17 22:36 34.197025 -118.351973 180 739ft 2kts

Navigation Log

Ident Type
1. KPHX Airport
2. SPRKY Fix
3. GOALY Fix
4. GOLDR Fix
5. ZEPER Fix
6. MAYSA Fix
7. JKPOT Fix
8. EED Navaid
9. HEC Navaid
10. BASAL Fix
11. KOPLE Fix
12. PMD Navaid
13. JANNY Fix
14. EIFEL Fix
15. LYNXX Fix
16. VNY Navaid
17. KBUR Airport